Terminal Aerodrome Forecast
Issued by NWS

Home | Current Version | Previous Version | Text Only | Print | Product List | Glossary On
Versions: 1 2 3 4 5 6 7 8 9 10 11 12 13 14 15 16 17 18 19 20
656
FTUS43 KIND 231120
TAFBMG
TAF
KBMG 231120Z 2312/2412 35013KT 4SM BR OVC003
     FM231500 35012KT 5SM BR OVC008
     FM240200 33008KT P6SM OVC010
     FM240900 31005KT 4SM BR BKN008
     FM241000 31005KT 4SM BR BKN015
      AMD LTD TO CLD VIS AND WIND TIL 231400=

USA.gov is the U.S. government's official web portal to all federal, state and local government web resources and services.